Aérodrome :
LOGIN :

S'inscrire | Disclaimer

   EN    FR    IT 

 










Légende :    VFR   VFR Marginal   IFR   IFR Intensif   IFR Très Intensif
Visi : 
Plafond : 
>= 8 km
>= 3000ft
5 à 8 km
1000 à 3000 ft
1500m à 5 km
500 à 1000 ft
800 à 1500m
200 à 500 ft
< 800m
< 200 ft
Symboles :   Orages  Brouillard  Fortes neiges  Fortes précipitations  Vent > 20 kt
SIGMETs :   Divers  Orages  Givrage  Turbulence  Onde Orograph.  Cendres Volcan.







- Altitude de l'aérodrome : 197 ft
- Code IATA : XOG
- Voir les cartes d'approche


LFMO - Orange

DERNIER METAR :
  • 130800Z AUTO VRB02KT 8000 SCT027 BKN054 OVC078 01/M00 Q1011

METARs EXPIRÉS :
  • 130730Z AUTO 00000KT 8000 OVC027 01/M01 Q1011 NOSIG
  • 130700Z AUTO VRB03KT 8000 BKN028 BKN064 OVC220 00/M01 Q1011 NOSIG
  • 130630Z AUTO 00000KT 8000 BKN029 BKN062 OVC220 M00/M02 Q1011 NOSIG
  • 130600Z AUTO VRB01KT 9000 OVC030 M00/M01 Q1012 NOSIG
  • 130530Z AUTO 00000KT 9000 OVC031 M01/M02 Q1012 NOSIG

TAF TAF LFMO
Valide du 13 à 03h jusqu'au 14 à 03h UTC


130200Z 1303/1403 VRB02KT 8000 NSC
PROB30
TEMPO 1303/1306 3000 BR
PROB30
TEMPO 1311/1321 RA
Pas de NOTAMs connus pour ce terrain.
1 SIGMET publié pour la FIR Marseille (LFMM) :
 
Givrage fort
LFMM SIGMET 1 VALID 130700/130900 LFPW
LFMM MARSEILLE FIR/UIR SEV ICE OBS AT 0655Z WI N4315 E00230 - N4430 E00245 - N4345 E00345 - N4315 E00330 - N4315 E00230 FL050/200 MOV SE 25KT NC=



MET'MAP, la Météo Aéronautique d'un coup d'oeil ! - Copyright ORBIFLY Décembre 2007 - Disclaimer

ORBIFLY MET'MAP TEAM :

Programmation & Développement : Alexandra Zaïnal
Conception & Développement : Baudouin d'Aumeries
Co-Programmation & Développement : Marc-Olivier Méhu
Soutien technique & logistique : Manuel Goepfert

Contact : metmap@orbifly.com




SOURCES & CREDITS :

   NOAA